sensor_id;sensor_type;location;lat;lon;timestamp;P1;durP1;ratioP1;P2;durP2;ratioP2
49296;SDS011;35163;48.878;18.040;2022-07-10T00:02:20;5.60;;;2.20;;
49296;SDS011;35163;48.878;18.040;2022-07-10T00:04:46;3.83;;;1.98;;
49296;SDS011;35163;48.878;18.040;2022-07-10T00:07:13;3.95;;;2.03;;
49296;SDS011;35163;48.878;18.040;2022-07-10T00:09:40;3.65;;;2.17;;
49296;SDS011;35163;48.878;18.040;2022-07-10T00:12:07;2.97;;;1.95;;
49296;SDS011;35163;48.878;18.040;2022-07-10T00:14:33;3.13;;;2.25;;
49296;SDS011;35163;48.878;18.040;2022-07-10T00:17:00;3.67;;;2.20;;
49296;SDS011;35163;48.878;18.040;2022-07-10T00:19:27;3.40;;;2.10;;
49296;SDS011;35163;48.878;18.040;2022-07-10T00:21:53;4.07;;;2.05;;
49296;SDS011;35163;48.878;18.040;2022-07-10T00:24:20;5.07;;;2.38;;
49296;SDS011;35163;48.878;18.040;2022-07-10T00:26:47;5.35;;;2.30;;
49296;SDS011;35163;48.878;18.040;2022-07-10T00:29:14;6.90;;;2.83;;
49296;SDS011;35163;48.878;18.040;2022-07-10T00:31:41;6.68;;;2.33;;
49296;SDS011;35163;48.878;18.040;2022-07-10T00:34:08;5.05;;;2.05;;
49296;SDS011;35163;48.878;18.040;2022-07-10T00:36:34;3.40;;;1.90;;
49296;SDS011;35163;48.878;18.040;2022-07-10T00:39:02;3.90;;;1.90;;
49296;SDS011;35163;48.878;18.040;2022-07-10T00:41:29;5.75;;;2.22;;
49296;SDS011;35163;48.878;18.040;2022-07-10T00:43:56;6.07;;;2.90;;
49296;SDS011;35163;48.878;18.040;2022-07-10T00:46:25;9.40;;;2.35;;
49296;SDS011;35163;48.878;18.040;2022-07-10T00:48:53;6.95;;;2.30;;
49296;SDS011;35163;48.878;18.040;2022-07-10T00:51:21;4.80;;;2.65;;
49296;SDS011;35163;48.878;18.040;2022-07-10T00:53:49;4.32;;;2.30;;
49296;SDS011;35163;48.878;18.040;2022-07-10T00:56:17;3.22;;;1.95;;
49296;SDS011;35163;48.878;18.040;2022-07-10T00:58:49;9.52;;;2.47;;
49296;SDS011;35163;48.878;18.040;2022-07-10T01:01:17;6.40;;;2.70;;
49296;SDS011;35163;48.878;18.040;2022-07-10T01:03:45;4.60;;;2.40;;
49296;SDS011;35163;48.878;18.040;2022-07-10T01:06:12;4.70;;;2.40;;
49296;SDS011;35163;48.878;18.040;2022-07-10T01:08:40;3.95;;;2.53;;
49296;SDS011;35163;48.878;18.040;2022-07-10T01:11:08;5.13;;;2.60;;
49296;SDS011;35163;48.878;18.040;2022-07-10T01:13:36;5.00;;;2.85;;
49296;SDS011;35163;48.878;18.040;2022-07-10T01:16:03;4.40;;;2.25;;
49296;SDS011;35163;48.878;18.040;2022-07-10T01:18:30;5.78;;;2.40;;
49296;SDS011;35163;48.878;18.040;2022-07-10T01:20:57;3.92;;;2.40;;
49296;SDS011;35163;48.878;18.040;2022-07-10T01:23:24;4.45;;;2.55;;
49296;SDS011;35163;48.878;18.040;2022-07-10T01:25:51;4.95;;;2.20;;
49296;SDS011;35163;48.878;18.040;2022-07-10T01:28:17;4.60;;;2.33;;
49296;SDS011;35163;48.878;18.040;2022-07-10T01:30:47;4.40;;;2.60;;
49296;SDS011;35163;48.878;18.040;2022-07-10T01:33:14;8.50;;;2.45;;
49296;SDS011;35163;48.878;18.040;2022-07-10T01:35:41;13.00;;;3.17;;
49296;SDS011;35163;48.878;18.040;2022-07-10T01:38:08;5.65;;;2.50;;
49296;SDS011;35163;48.878;18.040;2022-07-10T01:40:34;4.63;;;2.60;;
49296;SDS011;35163;48.878;18.040;2022-07-10T01:43:01;5.18;;;2.83;;
49296;SDS011;35163;48.878;18.040;2022-07-10T01:45:28;5.50;;;2.83;;
49296;SDS011;35163;48.878;18.040;2022-07-10T01:47:54;7.55;;;3.10;;
49296;SDS011;35163;48.878;18.040;2022-07-10T01:50:21;4.32;;;2.38;;
49296;SDS011;35163;48.878;18.040;2022-07-10T01:52:48;4.53;;;2.63;;
49296;SDS011;35163;48.878;18.040;2022-07-10T01:55:14;4.13;;;2.45;;
49296;SDS011;35163;48.878;18.040;2022-07-10T01:57:42;6.10;;;3.00;;
49296;SDS011;35163;48.878;18.040;2022-07-10T02:00:09;5.28;;;2.83;;
49296;SDS011;35163;48.878;18.040;2022-07-10T02:02:36;6.68;;;3.08;;
49296;SDS011;35163;48.878;18.040;2022-07-10T02:05:03;6.07;;;3.05;;
49296;SDS011;35163;48.878;18.040;2022-07-10T02:07:30;6.70;;;3.33;;
49296;SDS011;35163;48.878;18.040;2022-07-10T02:09:56;6.78;;;3.20;;
49296;SDS011;35163;48.878;18.040;2022-07-10T02:12:23;6.78;;;3.10;;
49296;SDS011;35163;48.878;18.040;2022-07-10T02:14:50;6.60;;;3.47;;
49296;SDS011;35163;48.878;18.040;2022-07-10T02:17:16;6.63;;;3.50;;
49296;SDS011;35163;48.878;18.040;2022-07-10T02:19:43;8.48;;;3.72;;
49296;SDS011;35163;48.878;18.040;2022-07-10T02:22:10;7.75;;;3.25;;
49296;SDS011;35163;48.878;18.040;2022-07-10T02:24:36;6.68;;;3.42;;
49296;SDS011;35163;48.878;18.040;2022-07-10T02:27:03;9.10;;;3.33;;
49296;SDS011;35163;48.878;18.040;2022-07-10T02:29:30;6.47;;;3.30;;
49296;SDS011;35163;48.878;18.040;2022-07-10T02:31:57;6.22;;;3.28;;
49296;SDS011;35163;48.878;18.040;2022-07-10T02:34:24;5.40;;;2.90;;
49296;SDS011;35163;48.878;18.040;2022-07-10T02:36:52;5.68;;;3.33;;
49296;SDS011;35163;48.878;18.040;2022-07-10T02:39:18;5.93;;;3.50;;
49296;SDS011;35163;48.878;18.040;2022-07-10T02:41:45;6.97;;;3.80;;
49296;SDS011;35163;48.878;18.040;2022-07-10T02:44:12;7.10;;;3.35;;
49296;SDS011;35163;48.878;18.040;2022-07-10T02:46:38;6.68;;;3.55;;
49296;SDS011;35163;48.878;18.040;2022-07-10T02:49:05;8.88;;;3.70;;
49296;SDS011;35163;48.878;18.040;2022-07-10T02:51:32;6.07;;;3.20;;
49296;SDS011;35163;48.878;18.040;2022-07-10T02:53:59;6.00;;;3.30;;
49296;SDS011;35163;48.878;18.040;2022-07-10T02:56:25;6.50;;;3.70;;
49296;SDS011;35163;48.878;18.040;2022-07-10T02:58:52;5.78;;;3.45;;
49296;SDS011;35163;48.878;18.040;2022-07-10T03:01:19;6.60;;;3.90;;
49296;SDS011;35163;48.878;18.040;2022-07-10T03:03:46;6.75;;;3.72;;
49296;SDS011;35163;48.878;18.040;2022-07-10T03:06:13;7.95;;;3.47;;
49296;SDS011;35163;48.878;18.040;2022-07-10T03:08:39;5.40;;;3.30;;
49296;SDS011;35163;48.878;18.040;2022-07-10T03:11:07;6.68;;;3.78;;
49296;SDS011;35163;48.878;18.040;2022-07-10T03:13:33;6.63;;;3.28;;
49296;SDS011;35163;48.878;18.040;2022-07-10T03:16:00;6.80;;;3.67;;
49296;SDS011;35163;48.878;18.040;2022-07-10T03:18:27;5.10;;;3.15;;
49296;SDS011;35163;48.878;18.040;2022-07-10T03:20:54;5.15;;;3.20;;
49296;SDS011;35163;48.878;18.040;2022-07-10T03:23:20;5.88;;;3.45;;
49296;SDS011;35163;48.878;18.040;2022-07-10T03:25:47;5.43;;;3.38;;
49296;SDS011;35163;48.878;18.040;2022-07-10T03:28:14;6.38;;;3.80;;
49296;SDS011;35163;48.878;18.040;2022-07-10T03:30:41;7.07;;;4.00;;
49296;SDS011;35163;48.878;18.040;2022-07-10T03:33:07;7.20;;;3.72;;
49296;SDS011;35163;48.878;18.040;2022-07-10T03:35:34;9.55;;;3.47;;
49296;SDS011;35163;48.878;18.040;2022-07-10T03:38:01;6.45;;;3.78;;
49296;SDS011;35163;48.878;18.040;2022-07-10T03:40:28;6.18;;;3.65;;
49296;SDS011;35163;48.878;18.040;2022-07-10T03:42:55;5.85;;;3.40;;
49296;SDS011;35163;48.878;18.040;2022-07-10T03:45:22;5.18;;;3.40;;
49296;SDS011;35163;48.878;18.040;2022-07-10T03:47:48;6.55;;;3.42;;
49296;SDS011;35163;48.878;18.040;2022-07-10T03:50:15;4.97;;;3.40;;
49296;SDS011;35163;48.878;18.040;2022-07-10T03:52:42;6.40;;;3.33;;
49296;SDS011;35163;48.878;18.040;2022-07-10T03:55:10;6.05;;;3.45;;
49296;SDS011;35163;48.878;18.040;2022-07-10T03:57:37;6.15;;;3.63;;
49296;SDS011;35163;48.878;18.040;2022-07-10T04:00:26;4.57;;;2.95;;
49296;SDS011;35163;48.878;18.040;2022-07-10T04:02:54;6.55;;;3.58;;
49296;SDS011;35163;48.878;18.040;2022-07-10T04:05:22;6.28;;;4.00;;
49296;SDS011;35163;48.878;18.040;2022-07-10T04:07:49;6.30;;;3.55;;
49296;SDS011;35163;48.878;18.040;2022-07-10T04:10:16;6.53;;;3.42;;
49296;SDS011;35163;48.878;18.040;2022-07-10T04:12:43;6.47;;;3.78;;
49296;SDS011;35163;48.878;18.040;2022-07-10T04:15:10;6.45;;;3.45;;
49296;SDS011;35163;48.878;18.040;2022-07-10T04:17:37;5.70;;;3.17;;
49296;SDS011;35163;48.878;18.040;2022-07-10T04:20:04;7.00;;;3.45;;
49296;SDS011;35163;48.878;18.040;2022-07-10T04:22:32;5.40;;;3.42;;
49296;SDS011;35163;48.878;18.040;2022-07-10T04:24:58;6.07;;;3.20;;
49296;SDS011;35163;48.878;18.040;2022-07-10T04:27:25;7.68;;;2.90;;
49296;SDS011;35163;48.878;18.040;2022-07-10T04:29:52;5.95;;;2.95;;
49296;SDS011;35163;48.878;18.040;2022-07-10T04:32:18;5.00;;;3.10;;
49296;SDS011;35163;48.878;18.040;2022-07-10T04:34:45;6.85;;;3.75;;
49296;SDS011;35163;48.878;18.040;2022-07-10T04:37:12;7.65;;;3.45;;
49296;SDS011;35163;48.878;18.040;2022-07-10T04:39:38;6.10;;;3.53;;
49296;SDS011;35163;48.878;18.040;2022-07-10T04:42:06;5.93;;;3.38;;
49296;SDS011;35163;48.878;18.040;2022-07-10T04:44:34;5.03;;;3.25;;
49296;SDS011;35163;48.878;18.040;2022-07-10T04:47:02;5.88;;;3.25;;
49296;SDS011;35163;48.878;18.040;2022-07-10T04:49:30;5.60;;;3.20;;
49296;SDS011;35163;48.878;18.040;2022-07-10T04:51:56;5.03;;;2.83;;
49296;SDS011;35163;48.878;18.040;2022-07-10T04:54:23;6.32;;;3.08;;
49296;SDS011;35163;48.878;18.040;2022-07-10T04:56:50;5.75;;;2.80;;
49296;SDS011;35163;48.878;18.040;2022-07-10T04:59:16;5.25;;;3.25;;
49296;SDS011;35163;48.878;18.040;2022-07-10T05:01:43;5.47;;;2.78;;
49296;SDS011;35163;48.878;18.040;2022-07-10T05:04:10;3.92;;;2.53;;
49296;SDS011;35163;48.878;18.040;2022-07-10T05:06:37;6.28;;;3.33;;
49296;SDS011;35163;48.878;18.040;2022-07-10T05:09:04;5.07;;;2.70;;
49296;SDS011;35163;48.878;18.040;2022-07-10T05:11:30;3.17;;;2.10;;
49296;SDS011;35163;48.878;18.040;2022-07-10T05:13:58;3.50;;;2.20;;
49296;SDS011;35163;48.878;18.040;2022-07-10T05:16:24;2.40;;;1.75;;
49296;SDS011;35163;48.878;18.040;2022-07-10T05:18:51;3.13;;;2.25;;
49296;SDS011;35163;48.878;18.040;2022-07-10T05:21:18;3.72;;;2.38;;
49296;SDS011;35163;48.878;18.040;2022-07-10T05:23:44;6.88;;;2.25;;
49296;SDS011;35163;48.878;18.040;2022-07-10T05:26:11;4.78;;;2.35;;
49296;SDS011;35163;48.878;18.040;2022-07-10T05:28:38;4.00;;;2.28;;
49296;SDS011;35163;48.878;18.040;2022-07-10T05:31:05;2.88;;;2.10;;
49296;SDS011;35163;48.878;18.040;2022-07-10T05:33:32;5.07;;;2.58;;
49296;SDS011;35163;48.878;18.040;2022-07-10T05:36:00;4.72;;;2.17;;
49296;SDS011;35163;48.878;18.040;2022-07-10T05:38:26;4.75;;;2.47;;
49296;SDS011;35163;48.878;18.040;2022-07-10T05:40:53;5.82;;;2.50;;
49296;SDS011;35163;48.878;18.040;2022-07-10T05:43:20;3.58;;;2.55;;
49296;SDS011;35163;48.878;18.040;2022-07-10T05:45:47;4.30;;;2.70;;
49296;SDS011;35163;48.878;18.040;2022-07-10T05:48:16;5.28;;;2.20;;
49296;SDS011;35163;48.878;18.040;2022-07-10T05:50:43;5.35;;;2.60;;
49296;SDS011;35163;48.878;18.040;2022-07-10T05:53:09;8.48;;;2.40;;
49296;SDS011;35163;48.878;18.040;2022-07-10T05:55:36;4.53;;;2.33;;
49296;SDS011;35163;48.878;18.040;2022-07-10T05:58:02;5.00;;;2.08;;
49296;SDS011;35163;48.878;18.040;2022-07-10T06:00:29;5.13;;;2.08;;
49296;SDS011;35163;48.878;18.040;2022-07-10T06:02:56;5.25;;;2.20;;
49296;SDS011;35163;48.878;18.040;2022-07-10T06:05:22;5.03;;;2.33;;
49296;SDS011;35163;48.878;18.040;2022-07-10T06:07:49;3.33;;;2.38;;
49296;SDS011;35163;48.878;18.040;2022-07-10T06:10:16;4.25;;;1.90;;
49296;SDS011;35163;48.878;18.040;2022-07-10T06:12:43;3.45;;;2.20;;
49296;SDS011;35163;48.878;18.040;2022-07-10T06:15:09;4.75;;;2.08;;
49296;SDS011;35163;48.878;18.040;2022-07-10T06:17:43;5.22;;;2.40;;
49296;SDS011;35163;48.878;18.040;2022-07-10T06:20:10;4.13;;;1.83;;
49296;SDS011;35163;48.878;18.040;2022-07-10T06:22:37;6.80;;;2.40;;
49296;SDS011;35163;48.878;18.040;2022-07-10T06:25:04;4.82;;;2.38;;
49296;SDS011;35163;48.878;18.040;2022-07-10T06:27:33;4.00;;;2.50;;
49296;SDS011;35163;48.878;18.040;2022-07-10T06:30:00;4.47;;;2.33;;
49296;SDS011;35163;48.878;18.040;2022-07-10T06:32:27;4.05;;;2.45;;
49296;SDS011;35163;48.878;18.040;2022-07-10T06:34:54;3.55;;;2.20;;
49296;SDS011;35163;48.878;18.040;2022-07-10T06:37:21;4.18;;;2.20;;
49296;SDS011;35163;48.878;18.040;2022-07-10T06:39:48;3.25;;;2.00;;
49296;SDS011;35163;48.878;18.040;2022-07-10T06:42:14;2.92;;;2.13;;
49296;SDS011;35163;48.878;18.040;2022-07-10T06:44:41;3.50;;;2.10;;
49296;SDS011;35163;48.878;18.040;2022-07-10T06:47:09;4.97;;;2.20;;
49296;SDS011;35163;48.878;18.040;2022-07-10T06:49:56;3.17;;;1.92;;
49296;SDS011;35163;48.878;18.040;2022-07-10T06:52:23;5.05;;;2.50;;
49296;SDS011;35163;48.878;18.040;2022-07-10T06:54:50;4.15;;;2.55;;
49296;SDS011;35163;48.878;18.040;2022-07-10T06:57:17;5.50;;;2.10;;
49296;SDS011;35163;48.878;18.040;2022-07-10T06:59:45;3.75;;;1.92;;
49296;SDS011;35163;48.878;18.040;2022-07-10T07:02:13;6.22;;;2.50;;
49296;SDS011;35163;48.878;18.040;2022-07-10T07:04:39;2.50;;;1.75;;
49296;SDS011;35163;48.878;18.040;2022-07-10T07:07:06;4.72;;;2.03;;
49296;SDS011;35163;48.878;18.040;2022-07-10T07:09:33;3.30;;;1.63;;
49296;SDS011;35163;48.878;18.040;2022-07-10T07:11:59;3.17;;;1.90;;
49296;SDS011;35163;48.878;18.040;2022-07-10T07:14:26;2.88;;;1.95;;
49296;SDS011;35163;48.878;18.040;2022-07-10T07:16:59;5.25;;;2.15;;
49296;SDS011;35163;48.878;18.040;2022-07-10T07:19:31;3.47;;;1.45;;
49296;SDS011;35163;48.878;18.040;2022-07-10T07:22:19;4.57;;;1.50;;
49296;SDS011;35163;48.878;18.040;2022-07-10T07:25:06;7.18;;;2.10;;
49296;SDS011;35163;48.878;18.040;2022-07-10T07:27:35;5.53;;;2.17;;
49296;SDS011;35163;48.878;18.040;2022-07-10T07:30:07;6.72;;;2.40;;
49296;SDS011;35163;48.878;18.040;2022-07-10T07:32:37;4.13;;;2.17;;
49296;SDS011;35163;48.878;18.040;2022-07-10T07:35:05;2.72;;;1.70;;
49296;SDS011;35163;48.878;18.040;2022-07-10T07:37:45;3.35;;;1.73;;
49296;SDS011;35163;48.878;18.040;2022-07-10T07:40:16;3.92;;;2.00;;
49296;SDS011;35163;48.878;18.040;2022-07-10T07:42:46;3.55;;;1.55;;
49296;SDS011;35163;48.878;18.040;2022-07-10T07:45:13;3.15;;;1.80;;
49296;SDS011;35163;48.878;18.040;2022-07-10T07:50:31;5.65;;;1.63;;
49296;SDS011;35163;48.878;18.040;2022-07-10T07:53:00;6.47;;;1.30;;
49296;SDS011;35163;48.878;18.040;2022-07-10T07:55:28;6.20;;;1.60;;
49296;SDS011;35163;48.878;18.040;2022-07-10T07:57:56;3.53;;;1.30;;
49296;SDS011;35163;48.878;18.040;2022-07-10T08:00:24;2.08;;;1.15;;
49296;SDS011;35163;48.878;18.040;2022-07-10T08:02:52;2.53;;;1.17;;
49296;SDS011;35163;48.878;18.040;2022-07-10T08:05:20;1.55;;;0.95;;
49296;SDS011;35163;48.878;18.040;2022-07-10T08:07:50;2.55;;;0.75;;
49296;SDS011;35163;48.878;18.040;2022-07-10T08:10:20;4.35;;;0.75;;
49296;SDS011;35163;48.878;18.040;2022-07-10T08:12:47;1.80;;;1.00;;
49296;SDS011;35163;48.878;18.040;2022-07-10T08:15:15;1.65;;;1.00;;
49296;SDS011;35163;48.878;18.040;2022-07-10T08:17:43;2.60;;;1.10;;
49296;SDS011;35163;48.878;18.040;2022-07-10T08:20:13;4.38;;;1.10;;
49296;SDS011;35163;48.878;18.040;2022-07-10T08:22:40;5.57;;;1.38;;
49296;SDS011;35163;48.878;18.040;2022-07-10T08:25:08;3.08;;;1.25;;
49296;SDS011;35163;48.878;18.040;2022-07-10T08:27:35;3.08;;;1.58;;
49296;SDS011;35163;48.878;18.040;2022-07-10T08:30:03;2.85;;;1.27;;
49296;SDS011;35163;48.878;18.040;2022-07-10T08:32:35;5.57;;;1.33;;
49296;SDS011;35163;48.878;18.040;2022-07-10T08:35:03;2.65;;;1.45;;
49296;SDS011;35163;48.878;18.040;2022-07-10T08:37:36;4.38;;;1.50;;
49296;SDS011;35163;48.878;18.040;2022-07-10T08:40:04;2.13;;;1.30;;
49296;SDS011;35163;48.878;18.040;2022-07-10T08:42:32;3.10;;;1.23;;
49296;SDS011;35163;48.878;18.040;2022-07-10T08:44:59;6.57;;;1.50;;
49296;SDS011;35163;48.878;18.040;2022-07-10T08:47:26;4.05;;;1.60;;
49296;SDS011;35163;48.878;18.040;2022-07-10T08:50:03;3.42;;;1.50;;
49296;SDS011;35163;48.878;18.040;2022-07-10T08:52:52;4.10;;;2.08;;
49296;SDS011;35163;48.878;18.040;2022-07-10T08:55:39;6.20;;;1.60;;
49296;SDS011;35163;48.878;18.040;2022-07-10T08:58:05;5.65;;;1.55;;
49296;SDS011;35163;48.878;18.040;2022-07-10T09:00:35;6.45;;;1.60;;
49296;SDS011;35163;48.878;18.040;2022-07-10T09:03:02;5.75;;;1.55;;
49296;SDS011;35163;48.878;18.040;2022-07-10T09:05:29;4.38;;;1.52;;
49296;SDS011;35163;48.878;18.040;2022-07-10T09:07:56;5.18;;;1.52;;
49296;SDS011;35163;48.878;18.040;2022-07-10T09:10:26;3.38;;;1.70;;
49296;SDS011;35163;48.878;18.040;2022-07-10T09:13:01;4.43;;;1.30;;
49296;SDS011;35163;48.878;18.040;2022-07-10T09:15:31;4.47;;;1.38;;
49296;SDS011;35163;48.878;18.040;2022-07-10T09:18:00;3.90;;;1.40;;
49296;SDS011;35163;48.878;18.040;2022-07-10T09:20:36;3.85;;;1.52;;
49296;SDS011;35163;48.878;18.040;2022-07-10T09:23:14;6.45;;;2.17;;
49296;SDS011;35163;48.878;18.040;2022-07-10T09:25:45;4.85;;;1.33;;
49296;SDS011;35163;48.878;18.040;2022-07-10T09:28:15;4.78;;;1.30;;
49296;SDS011;35163;48.878;18.040;2022-07-10T09:30:43;6.72;;;1.50;;
49296;SDS011;35163;48.878;18.040;2022-07-10T09:33:24;7.80;;;1.35;;
49296;SDS011;35163;48.878;18.040;2022-07-10T09:43:45;3.35;;;1.02;;
49296;SDS011;35163;48.878;18.040;2022-07-10T09:46:17;2.53;;;1.15;;
49296;SDS011;35163;48.878;18.040;2022-07-10T09:48:45;2.88;;;0.98;;
49296;SDS011;35163;48.878;18.040;2022-07-10T09:51:12;1.65;;;0.85;;
49296;SDS011;35163;48.878;18.040;2022-07-10T09:53:39;7.15;;;1.20;;
49296;SDS011;35163;48.878;18.040;2022-07-10T09:56:13;3.05;;;1.00;;
49296;SDS011;35163;48.878;18.040;2022-07-10T09:58:40;5.53;;;1.02;;
49296;SDS011;35163;48.878;18.040;2022-07-10T10:01:08;3.03;;;1.00;;
49296;SDS011;35163;48.878;18.040;2022-07-10T10:03:36;5.15;;;1.38;;
49296;SDS011;35163;48.878;18.040;2022-07-10T10:06:16;4.13;;;1.27;;
49296;SDS011;35163;48.878;18.040;2022-07-10T10:08:48;3.35;;;0.85;;
49296;SDS011;35163;48.878;18.040;2022-07-10T10:11:22;4.72;;;1.08;;
49296;SDS011;35163;48.878;18.040;2022-07-10T10:13:52;5.85;;;1.17;;
49296;SDS011;35163;48.878;18.040;2022-07-10T10:16:19;4.05;;;1.23;;
49296;SDS011;35163;48.878;18.040;2022-07-10T10:18:47;3.25;;;0.98;;
49296;SDS011;35163;48.878;18.040;2022-07-10T10:21:32;1.63;;;0.80;;
49296;SDS011;35163;48.878;18.040;2022-07-10T10:24:00;5.30;;;1.90;;
49296;SDS011;35163;48.878;18.040;2022-07-10T10:26:28;5.07;;;1.20;;
49296;SDS011;35163;48.878;18.040;2022-07-10T10:28:56;3.22;;;1.00;;
49296;SDS011;35163;48.878;18.040;2022-07-10T10:31:26;4.07;;;0.93;;
49296;SDS011;35163;48.878;18.040;2022-07-10T10:33:54;4.93;;;1.08;;
49296;SDS011;35163;48.878;18.040;2022-07-10T10:39:11;3.42;;;1.00;;
49296;SDS011;35163;48.878;18.040;2022-07-10T10:41:40;3.80;;;1.00;;
49296;SDS011;35163;48.878;18.040;2022-07-10T10:52:15;2.88;;;0.70;;
49296;SDS011;35163;48.878;18.040;2022-07-10T11:00:05;6.03;;;1.10;;
49296;SDS011;35163;48.878;18.040;2022-07-10T11:02:34;3.22;;;0.90;;
49296;SDS011;35163;48.878;18.040;2022-07-10T11:13:11;5.30;;;1.02;;
49296;SDS011;35163;48.878;18.040;2022-07-10T11:15:43;1.92;;;1.05;;
49296;SDS011;35163;48.878;18.040;2022-07-10T11:18:11;1.80;;;0.77;;
49296;SDS011;35163;48.878;18.040;2022-07-10T11:20:51;4.03;;;1.00;;
49296;SDS011;35163;48.878;18.040;2022-07-10T11:26:21;4.30;;;1.02;;
49296;SDS011;35163;48.878;18.040;2022-07-10T11:28:59;3.58;;;1.02;;
49296;SDS011;35163;48.878;18.040;2022-07-10T11:31:27;3.92;;;0.90;;
49296;SDS011;35163;48.878;18.040;2022-07-10T11:33:56;5.53;;;1.30;;
49296;SDS011;35163;48.878;18.040;2022-07-10T11:36:24;4.32;;;0.90;;
49296;SDS011;35163;48.878;18.040;2022-07-10T11:39:01;2.67;;;0.90;;
49296;SDS011;35163;48.878;18.040;2022-07-10T11:41:33;2.25;;;0.85;;
49296;SDS011;35163;48.878;18.040;2022-07-10T11:44:00;3.05;;;0.93;;
49296;SDS011;35163;48.878;18.040;2022-07-10T11:46:33;7.78;;;1.30;;
49296;SDS011;35163;48.878;18.040;2022-07-10T11:49:04;4.10;;;0.80;;
49296;SDS011;35163;48.878;18.040;2022-07-10T11:51:33;5.28;;;1.20;;
49296;SDS011;35163;48.878;18.040;2022-07-10T11:54:09;4.78;;;1.00;;
49296;SDS011;35163;48.878;18.040;2022-07-10T11:56:39;8.07;;;1.42;;
49296;SDS011;35163;48.878;18.040;2022-07-10T11:59:08;5.90;;;1.20;;
49296;SDS011;35163;48.878;18.040;2022-07-10T12:01:43;6.32;;;2.35;;
49296;SDS011;35163;48.878;18.040;2022-07-10T12:04:12;3.30;;;1.33;;
49296;SDS011;35163;48.878;18.040;2022-07-10T12:06:41;7.93;;;1.40;;
49296;SDS011;35163;48.878;18.040;2022-07-10T12:09:09;6.40;;;0.95;;
49296;SDS011;35163;48.878;18.040;2022-07-10T12:11:39;6.05;;;1.00;;
49296;SDS011;35163;48.878;18.040;2022-07-10T12:16:43;4.90;;;0.95;;
49296;SDS011;35163;48.878;18.040;2022-07-10T12:19:13;2.45;;;0.85;;
49296;SDS011;35163;48.878;18.040;2022-07-10T12:21:42;2.38;;;0.80;;
49296;SDS011;35163;48.878;18.040;2022-07-10T12:24:10;4.50;;;0.80;;
49296;SDS011;35163;48.878;18.040;2022-07-10T12:26:39;3.13;;;0.80;;
49296;SDS011;35163;48.878;18.040;2022-07-10T12:29:27;9.77;;;0.73;;
49296;SDS011;35163;48.878;18.040;2022-07-10T12:31:58;3.78;;;1.20;;
49296;SDS011;35163;48.878;18.040;2022-07-10T12:37:06;5.40;;;0.95;;
49296;SDS011;35163;48.878;18.040;2022-07-10T12:39:45;4.95;;;1.00;;
49296;SDS011;35163;48.878;18.040;2022-07-10T12:42:12;7.85;;;1.02;;
49296;SDS011;35163;48.878;18.040;2022-07-10T12:44:44;2.35;;;0.60;;
49296;SDS011;35163;48.878;18.040;2022-07-10T12:47:15;5.45;;;0.75;;
49296;SDS011;35163;48.878;18.040;2022-07-10T12:52:30;6.07;;;1.95;;
49296;SDS011;35163;48.878;18.040;2022-07-10T12:55:16;7.75;;;1.30;;
49296;SDS011;35163;48.878;18.040;2022-07-10T12:57:49;2.20;;;0.93;;
49296;SDS011;35163;48.878;18.040;2022-07-10T13:00:21;5.30;;;1.45;;
49296;SDS011;35163;48.878;18.040;2022-07-10T13:03:06;5.32;;;1.15;;
49296;SDS011;35163;48.878;18.040;2022-07-10T13:05:35;7.22;;;1.50;;
49296;SDS011;35163;48.878;18.040;2022-07-10T13:10:37;3.40;;;1.15;;
49296;SDS011;35163;48.878;18.040;2022-07-10T13:13:05;3.45;;;1.00;;
49296;SDS011;35163;48.878;18.040;2022-07-10T13:15:32;4.28;;;1.15;;
49296;SDS011;35163;48.878;18.040;2022-07-10T13:18:07;4.07;;;1.10;;
49296;SDS011;35163;48.878;18.040;2022-07-10T13:20:34;3.60;;;0.80;;
49296;SDS011;35163;48.878;18.040;2022-07-10T13:23:01;3.35;;;0.90;;
49296;SDS011;35163;48.878;18.040;2022-07-10T13:25:28;5.03;;;0.98;;
49296;SDS011;35163;48.878;18.040;2022-07-10T13:27:55;6.35;;;0.90;;
49296;SDS011;35163;48.878;18.040;2022-07-10T13:30:22;2.83;;;0.82;;
49296;SDS011;35163;48.878;18.040;2022-07-10T13:32:48;4.75;;;1.73;;
49296;SDS011;35163;48.878;18.040;2022-07-10T13:35:15;3.90;;;0.90;;
49296;SDS011;35163;48.878;18.040;2022-07-10T13:37:42;4.07;;;0.90;;
49296;SDS011;35163;48.878;18.040;2022-07-10T13:40:09;4.43;;;1.20;;
49296;SDS011;35163;48.878;18.040;2022-07-10T13:42:36;3.28;;;1.15;;
49296;SDS011;35163;48.878;18.040;2022-07-10T13:45:02;1.67;;;0.73;;
49296;SDS011;35163;48.878;18.040;2022-07-10T13:47:29;7.20;;;0.88;;
49296;SDS011;35163;48.878;18.040;2022-07-10T13:49:56;4.05;;;1.50;;
49296;SDS011;35163;48.878;18.040;2022-07-10T13:52:23;5.20;;;1.10;;
49296;SDS011;35163;48.878;18.040;2022-07-10T13:54:49;7.35;;;1.27;;
49296;SDS011;35163;48.878;18.040;2022-07-10T13:57:16;3.10;;;0.77;;
49296;SDS011;35163;48.878;18.040;2022-07-10T13:59:43;5.68;;;0.93;;
49296;SDS011;35163;48.878;18.040;2022-07-10T14:02:09;3.40;;;0.90;;
49296;SDS011;35163;48.878;18.040;2022-07-10T14:04:41;6.50;;;0.75;;
49296;SDS011;35163;48.878;18.040;2022-07-10T14:07:08;2.20;;;0.60;;
49296;SDS011;35163;48.878;18.040;2022-07-10T14:09:35;2.17;;;0.68;;
49296;SDS011;35163;48.878;18.040;2022-07-10T14:12:01;6.22;;;1.00;;
49296;SDS011;35163;48.878;18.040;2022-07-10T14:14:28;2.33;;;0.63;;
49296;SDS011;35163;48.878;18.040;2022-07-10T14:16:56;2.45;;;0.90;;
49296;SDS011;35163;48.878;18.040;2022-07-10T14:19:22;4.22;;;1.50;;
49296;SDS011;35163;48.878;18.040;2022-07-10T14:21:49;9.02;;;1.45;;
49296;SDS011;35163;48.878;18.040;2022-07-10T14:24:16;4.28;;;1.00;;
49296;SDS011;35163;48.878;18.040;2022-07-10T14:26:43;7.13;;;1.00;;
49296;SDS011;35163;48.878;18.040;2022-07-10T14:29:09;3.60;;;0.90;;
49296;SDS011;35163;48.878;18.040;2022-07-10T14:31:36;4.82;;;1.13;;
49296;SDS011;35163;48.878;18.040;2022-07-10T14:34:03;6.00;;;1.10;;
49296;SDS011;35163;48.878;18.040;2022-07-10T14:36:31;5.53;;;1.13;;
49296;SDS011;35163;48.878;18.040;2022-07-10T14:38:58;6.82;;;1.10;;
49296;SDS011;35163;48.878;18.040;2022-07-10T14:41:25;7.57;;;1.45;;
49296;SDS011;35163;48.878;18.040;2022-07-10T14:43:51;2.38;;;0.85;;
49296;SDS011;35163;48.878;18.040;2022-07-10T14:46:18;6.00;;;1.30;;
49296;SDS011;35163;48.878;18.040;2022-07-10T14:48:45;2.40;;;0.88;;
49296;SDS011;35163;48.878;18.040;2022-07-10T14:51:12;2.65;;;0.95;;
49296;SDS011;35163;48.878;18.040;2022-07-10T14:53:39;2.55;;;1.10;;
49296;SDS011;35163;48.878;18.040;2022-07-10T14:56:08;3.28;;;0.98;;
49296;SDS011;35163;48.878;18.040;2022-07-10T14:58:35;3.75;;;1.25;;
49296;SDS011;35163;48.878;18.040;2022-07-10T15:01:22;1.25;;;0.80;;
49296;SDS011;35163;48.878;18.040;2022-07-10T15:03:49;4.20;;;1.00;;
49296;SDS011;35163;48.878;18.040;2022-07-10T15:06:15;4.75;;;0.90;;
49296;SDS011;35163;48.878;18.040;2022-07-10T15:08:42;2.42;;;0.95;;
49296;SDS011;35163;48.878;18.040;2022-07-10T15:11:09;2.95;;;1.10;;
49296;SDS011;35163;48.878;18.040;2022-07-10T15:13:36;1.95;;;0.82;;
49296;SDS011;35163;48.878;18.040;2022-07-10T15:16:03;4.38;;;1.60;;
49296;SDS011;35163;48.878;18.040;2022-07-10T15:18:30;2.28;;;1.33;;
49296;SDS011;35163;48.878;18.040;2022-07-10T15:20:57;3.20;;;1.10;;
49296;SDS011;35163;48.878;18.040;2022-07-10T15:23:24;5.93;;;0.90;;
49296;SDS011;35163;48.878;18.040;2022-07-10T15:25:54;4.47;;;1.10;;
49296;SDS011;35163;48.878;18.040;2022-07-10T15:28:24;5.60;;;1.02;;
49296;SDS011;35163;48.878;18.040;2022-07-10T15:30:51;3.67;;;1.08;;